Time;durP1;ratioP1;P1;durP2;ratioP2;P2;SDS_P1;SDS_P2;PMS_P1;PMS_P2;Temp;Humidity;BMP_temperature;BMP_pressure;BME280_temperature;BME280_humidity;BME280_pressure;Samples;Min_cycle;Max_cycle;Signal;HPM_P1;HPM_P2
2022/03/30 00:01:43;;;;;;;49.47;24.93;;;;;;;10.39;32.68;99396.50;125678;1102;102583;-78
2022/03/30 00:04:15;;;;;;;51.10;25.40;;;;;;;10.35;32.88;99400.81;126106;1102;104060;-78
2022/03/30 00:06:46;;;;;;;54.63;27.33;;;;;;;10.24;33.21;99402.32;125246;1105;104178;-79
2022/03/30 00:09:17;;;;;;;62.37;28.40;;;;;;;10.17;33.09;99400.42;125297;1102;102687;-78
2022/03/30 00:11:53;;;;;;;56.33;27.33;;;;;;;10.14;32.58;99400.36;124922;1105;104352;-78
2022/03/30 00:14:25;;;;;;;58.10;28.17;;;;;;;10.13;33.18;99402.11;125463;1102;102491;-78
2022/03/30 00:16:57;;;;;;;58.53;27.27;;;;;;;10.14;33.38;99400.36;124994;1102;102268;-78
2022/03/30 00:19:31;;;;;;;54.87;25.80;;;;;;;10.14;33.35;99390.75;124721;1103;104344;-79
2022/03/30 00:22:01;;;;;;;56.13;26.12;;;;;;;10.15;33.01;99405.63;125042;1102;104235;-78
2022/03/30 00:24:32;;;;;;;62.15;27.45;;;;;;;10.05;33.32;99408.91;125233;1102;104370;-79
2022/03/30 00:27:06;;;;;;;62.05;28.23;;;;;;;9.93;33.72;99406.94;125286;1102;104044;-78
2022/03/30 00:29:37;;;;;;;62.33;28.87;;;;;;;9.76;34.38;99409.20;125263;1102;102800;-78
2022/03/30 00:32:10;;;;;;;58.87;28.37;;;;;;;9.59;33.56;99405.34;126220;1100;102198;-79
2022/03/30 00:34:41;;;;;;;60.28;29.20;;;;;;;9.53;33.79;99414.80;125031;1102;104208;-78
2022/03/30 00:37:12;;;;;;;64.73;28.80;;;;;;;9.50;34.28;99413.86;124878;1102;104427;-78
2022/03/30 00:39:43;;;;;;;62.33;30.57;;;;;;;9.42;34.10;99412.81;124655;1102;104320;-78
2022/03/30 00:42:22;;;;;;;68.67;32.90;;;;;;;9.39;33.91;99415.36;124769;1102;102343;-78
2022/03/30 00:44:54;;;;;;;65.87;31.97;;;;;;;9.41;34.47;99411.03;124634;1102;102494;-79
2022/03/30 00:47:27;;;;;;;66.60;32.87;;;;;;;9.42;34.12;99411.07;124549;1102;104169;-78
2022/03/30 00:49:58;;;;;;;71.10;33.93;;;;;;;9.46;34.18;99412.92;124504;1105;104172;-78
2022/03/30 00:52:29;;;;;;;72.10;35.53;;;;;;;9.51;34.08;99413.02;124783;1101;104217;-78
2022/03/30 00:55:03;;;;;;;62.63;34.57;;;;;;;9.53;34.61;99416.55;124907;1102;102682;-78
2022/03/30 00:57:34;;;;;;;67.85;34.80;;;;;;;9.54;34.92;99408.73;124813;1102;104192;-78
2022/03/30 01:00:08;;;;;;;62.50;34.70;;;;;;;9.56;34.66;99411.38;124646;1102;102148;-78
2022/03/30 01:02:43;;;;;;;63.67;35.03;;;;;;;9.55;34.57;99409.60;124787;1102;104185;-78
2022/03/30 01:05:16;;;;;;;65.63;35.50;;;;;;;9.53;34.56;99408.70;124893;1102;102599;-78
2022/03/30 01:07:47;;;;;;;66.28;33.50;;;;;;;9.48;34.66;99411.21;124997;1102;102713;-78
2022/03/30 01:10:19;;;;;;;61.40;34.23;;;;;;;9.45;34.53;99411.14;124601;1103;104312;-78
2022/03/30 01:12:52;;;;;;;67.10;34.73;;;;;;;9.42;34.21;99410.20;125199;1102;104169;-80
2022/03/30 01:15:26;;;;;;;66.80;38.23;;;;;;;9.32;35.07;99409.98;124608;1105;103276;-79
2022/03/30 01:17:56;;;;;;;62.70;40.27;;;;;;;9.25;35.40;99409.80;124474;1105;104253;-79
2022/03/30 01:20:26;;;;;;;66.23;41.80;;;;;;;9.17;35.18;99415.73;124328;1106;102218;-79
2022/03/30 01:22:58;;;;;;;67.83;43.50;;;;;;;9.09;34.86;99419.91;124484;1105;104245;-78
2022/03/30 01:25:29;;;;;;;67.13;41.20;;;;;;;9.07;35.35;99420.70;124304;1105;102829;-78
2022/03/30 01:28:01;;;;;;;65.53;40.63;;;;;;;9.10;35.41;99413.83;124347;1106;104191;-78
2022/03/30 01:33:18;;;;;;;65.60;40.83;;;;;;;9.14;35.20;99406.93;124447;1105;104070;-79
2022/03/30 01:35:50;;;;;;;66.67;39.20;;;;;;;9.17;35.53;99397.41;124557;1105;104243;-78
2022/03/30 01:38:19;;;;;;;69.83;41.13;;;;;;;9.20;35.52;99400.97;124209;1105;104369;-79
2022/03/30 01:40:50;;;;;;;64.43;39.40;;;;;;;9.23;34.94;99401.04;124472;1105;104185;-78
2022/03/30 01:43:23;;;;;;;63.60;37.93;;;;;;;9.24;34.93;99395.84;124703;1105;104268;-78
2022/03/30 01:45:54;;;;;;;68.37;40.63;;;;;;;9.18;35.61;99406.16;124854;1105;102998;-78
2022/03/30 01:48:26;;;;;;;68.83;39.70;;;;;;;9.14;35.76;99407.80;124877;1106;102943;-79
2022/03/30 01:50:59;;;;;;;65.20;39.50;;;;;;;9.15;35.31;99413.94;124800;1105;104227;-79
2022/03/30 01:53:29;;;;;;;66.13;39.70;;;;;;;9.12;35.49;99409.51;124789;1102;104867;-78
2022/03/30 01:56:00;;;;;;;61.43;39.37;;;;;;;9.12;35.36;99413.87;124721;1102;104284;-78
2022/03/30 01:58:33;;;;;;;70.33;41.53;;;;;;;9.05;36.16;99433.75;125971;1101;101902;-79
2022/03/30 02:01:04;;;;;;;64.87;38.85;;;;;;;8.92;35.85;99424.72;124707;1101;102868;-79
2022/03/30 02:03:34;;;;;;;65.97;38.00;;;;;;;8.86;36.40;99426.30;125252;1102;104172;-78
2022/03/30 02:06:06;;;;;;;65.00;39.23;;;;;;;8.78;36.09;99426.98;124838;1102;104208;-78
2022/03/30 02:08:36;;;;;;;65.03;38.83;;;;;;;8.76;36.00;99436.53;124445;1102;104248;-78
2022/03/30 02:11:05;;;;;;;61.60;37.30;;;;;;;8.71;36.10;99432.02;124461;1102;104306;-78
2022/03/30 02:13:36;;;;;;;58.70;36.57;;;;;;;8.67;36.75;99430.19;124786;1102;104235;-78
2022/03/30 02:16:09;;;;;;;60.03;37.40;;;;;;;8.63;36.48;99439.66;124569;1102;104166;-77
2022/03/30 02:18:42;;;;;;;57.67;34.67;;;;;;;8.63;36.42;99437.95;124671;1102;104214;-78
2022/03/30 02:21:12;;;;;;;63.53;36.43;;;;;;;8.59;36.88;99433.47;124622;1102;102546;-79
2022/03/30 02:23:45;;;;;;;62.35;36.50;;;;;;;8.58;36.19;99436.05;124413;1102;103094;-78
2022/03/30 02:26:19;;;;;;;59.20;34.63;;;;;;;8.56;36.75;99432.52;124722;1102;104242;-78
2022/03/30 02:28:51;;;;;;;58.57;34.43;;;;;;;8.54;36.66;99424.63;124453;1102;104214;-78
2022/03/30 02:31:21;;;;;;;61.35;34.75;;;;;;;8.56;36.96;99432.52;124305;1105;102421;-78
2022/03/30 02:33:51;;;;;;;53.30;32.17;;;;;;;8.59;36.44;99424.75;124450;1102;103044;-78
2022/03/30 02:36:20;;;;;;;53.70;31.83;;;;;;;8.61;36.82;99423.92;124430;1102;103315;-78
2022/03/30 02:38:51;;;;;;;61.20;33.37;;;;;;;8.62;36.48;99417.86;124554;1101;102664;-78
2022/03/30 02:41:21;;;;;;;51.90;32.90;;;;;;;8.63;36.74;99424.88;124561;1102;102090;-78
2022/03/30 02:43:52;;;;;;;56.10;33.80;;;;;;;8.56;36.94;99420.31;124641;1102;102289;-78
2022/03/30 02:46:24;;;;;;;60.10;34.95;;;;;;;8.50;36.61;99424.50;124677;1102;104175;-78
2022/03/30 02:48:54;;;;;;;58.03;35.37;;;;;;;8.48;37.05;99427.08;124629;1102;104166;-78
2022/03/30 02:51:27;;;;;;;57.93;35.20;;;;;;;8.50;37.19;99427.12;124592;1102;104242;-78
2022/03/30 02:53:57;;;;;;;56.40;34.10;;;;;;;8.52;37.33;99431.52;124297;1102;104185;-78
2022/03/30 02:56:28;;;;;;;61.93;34.43;;;;;;;8.55;37.34;99421.14;124319;1102;102897;-78
2022/03/30 02:59:01;;;;;;;57.90;33.20;;;;;;;8.60;37.13;99419.56;124120;1102;104242;-78
2022/03/30 03:01:32;;;;;;;59.20;34.10;;;;;;;8.65;37.41;99422.30;124322;1102;104163;-78
2022/03/30 03:04:02;;;;;;;71.93;35.30;;;;;;;8.68;36.98;99417.15;124242;1102;104182;-78
2022/03/30 03:06:32;;;;;;;61.83;34.10;;;;;;;8.72;37.57;99420.72;124309;1102;104227;-78
2022/03/30 03:09:03;;;;;;;64.63;34.17;;;;;;;8.75;37.08;99415.56;124304;1102;104294;-78
2022/03/30 03:11:33;;;;;;;61.00;33.20;;;;;;;8.79;37.18;99412.19;124202;1102;102358;-78
2022/03/30 03:14:05;;;;;;;61.27;34.10;;;;;;;8.81;36.95;99413.11;124318;1102;102096;-79
2022/03/30 03:16:35;;;;;;;56.27;34.87;;;;;;;8.82;37.22;99420.13;124147;1102;104367;-78
2022/03/30 03:19:05;;;;;;;57.63;35.20;;;;;;;8.83;37.35;99411.41;124207;1102;104272;-78
2022/03/30 03:21:35;;;;;;;61.83;34.23;;;;;;;8.85;37.68;99420.20;124268;1102;102289;-78
2022/03/30 03:24:05;;;;;;;62.00;35.70;;;;;;;8.86;37.21;99419.33;124345;1102;104319;-78
2022/03/30 03:26:35;;;;;;;59.93;35.60;;;;;;;8.88;36.96;99420.27;124267;1102;104057;-78
2022/03/30 03:29:07;;;;;;;61.47;33.83;;;;;;;8.90;37.72;99417.70;124485;1102;103223;-78
2022/03/30 03:31:42;;;;;;;59.03;33.93;;;;;;;8.92;37.77;99421.22;124312;1102;102806;-78
2022/03/30 03:34:14;;;;;;;59.83;34.20;;;;;;;8.92;37.64;99416.87;125235;1102;103331;-78
2022/03/30 03:36:47;;;;;;;63.90;33.60;;;;;;;8.91;37.55;99422.06;125237;1105;104338;-79
2022/03/30 03:39:23;;;;;;;57.73;33.05;;;;;;;8.87;37.87;99428.95;125088;1105;104152;-79
2022/03/30 03:41:54;;;;;;;58.97;35.30;;;;;;;8.80;37.80;99427.92;124592;1105;104240;-78
2022/03/30 03:44:29;;;;;;;59.57;35.23;;;;;;;8.71;38.00;99437.24;124477;1105;102193;-79
2022/03/30 03:47:04;;;;;;;62.40;37.57;;;;;;;8.59;37.65;99443.05;125658;1105;104266;-79
2022/03/30 03:49:48;;;;;;;;;;;;;;;8.40;38.38;99441.64;125674;1105;102676;-79
2022/03/30 03:52:19;;;;;;;62.70;37.90;;;;;;;8.28;38.01;99437.83;125288;1105;103491;-78
2022/03/30 03:54:52;;;;;;;62.47;36.77;;;;;;;8.32;37.74;99437.91;124311;1105;104676;-79
2022/03/30 03:57:24;;;;;;;64.67;38.33;;;;;;;8.34;38.38;99438.86;124160;1105;104236;-79
2022/03/30 03:59:54;;;;;;;61.43;37.70;;;;;;;8.39;38.24;99434.63;124131;1105;104224;-78
2022/03/30 04:02:24;;;;;;;60.70;37.13;;;;;;;8.42;38.04;99434.72;124502;1102;104301;-80
2022/03/30 04:04:54;;;;;;;60.93;37.87;;;;;;;8.45;37.86;99435.71;124506;1102;104159;-78
2022/03/30 04:07:26;;;;;;;65.40;37.07;;;;;;;8.48;37.92;99440.15;124527;1102;102204;-79
2022/03/30 04:09:56;;;;;;;64.95;36.85;;;;;;;8.51;38.61;99445.46;125358;1102;101931;-79
2022/03/30 04:12:25;;;;;;;69.00;39.37;;;;;;;8.53;38.48;99443.77;125571;1102;104414;-78
2022/03/30 04:14:56;;;;;;;61.00;37.27;;;;;;;8.56;38.19;99442.97;125369;1102;103006;-79
2022/03/30 04:17:29;;;;;;;78.23;38.80;;;;;;;8.57;38.42;99445.63;125362;1102;104195;-79
2022/03/30 04:20:02;;;;;;;67.07;38.90;;;;;;;8.61;38.67;99442.23;125782;1102;102397;-78
2022/03/30 04:22:35;;;;;;;69.93;38.63;;;;;;;8.66;38.39;99444.97;125280;1102;104197;-79
2022/03/30 04:25:07;;;;;;;66.25;38.60;;;;;;;8.62;38.90;99449.23;124848;1102;102470;-77
2022/03/30 04:27:47;;;;;;;64.63;38.30;;;;;;;8.58;38.65;99449.98;124560;1101;102582;-78
2022/03/30 04:30:20;;;;;;;72.57;40.80;;;;;;;8.53;39.26;99458.58;124814;1102;104343;-78
2022/03/30 04:32:51;;;;;;;71.35;41.75;;;;;;;8.52;38.77;99451.56;124662;1102;102970;-78
2022/03/30 04:35:25;;;;;;;74.47;41.37;;;;;;;8.55;39.33;99446.42;124393;1102;103251;-77
2022/03/30 04:37:55;;;;;;;70.60;42.23;;;;;;;8.58;38.69;99454.34;124463;1102;102905;-78
2022/03/30 04:40:27;;;;;;;73.87;42.07;;;;;;;8.64;39.23;99463.23;124437;1102;104395;-78
2022/03/30 04:42:57;;;;;;;72.73;42.87;;;;;;;8.71;38.99;99456.45;124324;1102;102666;-77
2022/03/30 04:45:28;;;;;;;71.87;42.07;;;;;;;8.81;39.38;99465.42;124432;1102;102867;-79
2022/03/30 04:48:00;;;;;;;74.20;43.13;;;;;;;8.85;38.73;99467.28;124289;1102;102906;-77
2022/03/30 04:50:30;;;;;;;71.83;41.47;;;;;;;8.91;39.18;99472.67;124566;1102;104303;-78
2022/03/30 04:53:01;;;;;;;67.23;41.60;;;;;;;8.92;39.54;99474.42;124251;1102;104711;-78
2022/03/30 04:55:31;;;;;;;74.73;43.83;;;;;;;8.92;39.30;99470.94;124418;1102;104179;-78
2022/03/30 04:58:02;;;;;;;68.93;38.40;;;;;;;8.91;39.54;99475.30;125405;1102;104169;-78
2022/03/30 05:00:33;;;;;;;61.60;35.10;;;;;;;8.91;39.16;99472.67;124387;1102;104252;-79
2022/03/30 05:03:04;;;;;;;61.70;35.50;;;;;;;8.96;39.52;99478.00;124440;1102;104240;-79
2022/03/30 05:05:35;;;;;;;64.67;36.00;;;;;;;9.08;39.02;99482.67;124552;1102;102537;-78
2022/03/30 05:08:08;;;;;;;63.83;36.57;;;;;;;9.20;39.25;99474.25;124265;1103;104251;-79
2022/03/30 05:10:42;;;;;;;64.40;36.03;;;;;;;9.31;38.84;99478.88;125578;1102;101881;-78
2022/03/30 05:13:15;;;;;;;63.20;36.73;;;;;;;9.42;38.77;99465.18;124916;1102;104178;-77
2022/03/30 05:15:45;;;;;;;63.53;37.00;;;;;;;9.52;38.85;99467.15;124358;1102;102862;-77
2022/03/30 05:18:16;;;;;;;64.43;37.70;;;;;;;9.61;38.80;99461.25;124340;1102;102389;-77
2022/03/30 05:20:47;;;;;;;65.00;37.00;;;;;;;9.71;38.80;99452.77;124564;1102;104714;-78
2022/03/30 05:23:19;;;;;;;66.13;37.27;;;;;;;9.78;38.82;99456.39;124624;1102;102133;-78
2022/03/30 05:25:56;;;;;;;62.10;35.43;;;;;;;9.84;38.96;99453.91;125513;1101;104182;-79
2022/03/30 05:28:38;;;;;;;60.23;35.93;;;;;;;9.92;39.31;99449.70;125724;1101;104184;-79
2022/03/30 05:31:11;;;;;;;63.60;34.90;;;;;;;9.97;38.67;99458.58;125623;1102;102264;-78
2022/03/30 05:33:42;;;;;;;61.60;35.73;;;;;;;10.04;38.74;99457.84;125234;1102;104198;-78
2022/03/30 05:36:14;;;;;;;67.30;34.93;;;;;;;10.14;38.52;99461.52;125514;1102;103188;-78
2022/03/30 05:38:48;;;;;;;61.27;36.20;;;;;;;10.21;39.03;99459.94;125060;1102;104277;-80
2022/03/30 05:41:33;;;;;;;;;;;;;;;;;;;;;
2022/03/30 05:44:29;;;;;;;63.80;37.07;;;;;;;10.21;38.47;99444.20;125785;1102;101902;-79
2022/03/30 05:47:16;;;;;;;62.77;36.93;;;;;;;10.35;38.82;99463.75;125377;1102;102360;-80
2022/03/30 05:50:01;;;;;;;62.80;38.50;;;;;;;10.41;38.95;99468.23;125686;1102;104255;-80
2022/03/30 05:52:32;;;;;;;72.13;40.73;;;;;;;10.43;38.88;99475.27;125513;1102;104089;-81
2022/03/30 05:55:10;;;;;;;71.60;42.45;;;;;;;10.47;38.53;99473.61;125121;1102;101786;-80
2022/03/30 05:57:44;;;;;;;70.40;38.57;;;;;;;10.52;38.89;99476.32;125087;1102;119376;-81
2022/03/30 06:00:53;;;;;;;72.20;41.58;;;;;;;10.54;38.70;99477.22;125216;1102;104258;-79
2022/03/30 06:03:34;;;;;;;81.47;43.03;;;;;;;10.52;38.37;99487.69;125551;1102;104315;-82
2022/03/30 06:06:28;;;;;;;77.53;44.40;;;;;;;10.54;38.54;99487.72;124723;1102;102091;-82
2022/03/30 06:09:21;;;;;;;76.20;44.10;;;;;;;10.58;38.41;99489.52;125840;1102;104239;-82
2022/03/30 06:12:08;;;;;;;75.13;42.33;;;;;;;10.65;38.53;99486.17;125261;1105;102455;-81
2022/03/30 06:14:41;;;;;;;72.70;42.33;;;;;;;10.78;38.69;99484.66;125302;1102;104197;-80
2022/03/30 06:17:54;;;;;;;77.00;41.43;;;;;;;10.89;38.69;99482.23;125491;1102;104173;-82
2022/03/30 06:21:03;;;;;;;67.93;39.53;;;;;;;11.02;38.52;99486.86;125299;1102;102791;-83
2022/03/30 06:24:05;;;;;;;65.70;36.70;;;;;;;11.14;38.92;99478.29;125449;1102;102004;-83
2022/03/30 06:27:02;;;;;;;67.50;37.00;;;;;;;11.26;38.61;99478.50;125403;1102;104342;-84
2022/03/30 06:29:41;;;;;;;61.40;34.63;;;;;;;11.38;38.64;99477.83;125113;1102;104210;-80
2022/03/30 06:35:12;;;;;;;56.63;30.20;;;;;;;11.60;38.10;99479.03;125345;1102;104271;-79
2022/03/30 06:37:47;;;;;;;56.97;30.67;;;;;;;11.71;38.06;99479.20;125158;1102;104361;-80
2022/03/30 06:40:20;;;;;;;59.30;29.67;;;;;;;11.86;37.98;99483.81;125448;1102;104213;-81
2022/03/30 06:43:26;;;;;;;58.37;30.97;;;;;;;12.00;37.93;99474.39;125096;1102;104717;-81
2022/03/30 06:46:06;;;;;;;55.00;30.67;;;;;;;12.20;37.97;99479.91;124779;1102;102410;-78
2022/03/30 06:48:49;;;;;;;54.87;31.73;;;;;;;12.36;37.83;99480.98;125033;1102;105524;-81
2022/03/30 06:51:23;;;;;;;52.65;30.05;;;;;;;12.52;37.47;99471.52;124242;1102;102149;-79
2022/03/30 06:53:57;;;;;;;56.00;28.93;;;;;;;12.67;37.31;99468.18;124624;1102;102204;-80
2022/03/30 06:56:37;;;;;;;49.20;27.57;;;;;;;12.82;37.36;99471.83;124902;1101;104188;-81
2022/03/30 06:59:37;;;;;;;46.33;25.47;;;;;;;13.01;37.58;99467.62;125449;1102;102457;-83
2022/03/30 07:02:28;;;;;;;45.70;25.73;;;;;;;13.23;37.11;99474.86;125439;1104;104305;-81
2022/03/30 07:05:38;;;;;;;;;;;;;;;;;;;;;
2022/03/30 07:11:37;;;;;;;50.60;26.50;;;;;;;13.76;36.56;99472.61;125103;1105;104248;-81
2022/03/30 07:14:27;;;;;;;46.50;25.23;;;;;;;13.89;36.48;99481.51;124986;1106;102050;-80
2022/03/30 07:17:17;;;;;;;48.60;26.37;;;;;;;13.97;36.35;99472.75;125163;1106;102845;-81
2022/03/30 07:20:05;;;;;;;62.33;26.63;;;;;;;14.09;35.85;99471.07;125107;1105;104179;-79
2022/03/30 07:23:16;;;;;;;;;;;;;;;;;;;;;
2022/03/30 07:26:45;;;;;;;;;;;;;;;;;;;;;
2022/03/30 07:29:30;;;;;;;52.17;23.60;;;;;;;14.45;35.62;99472.09;125152;1105;104253;-79
2022/03/30 07:32:33;;;;;;;;;;;;;;;;;;;;;
2022/03/30 07:35:24;;;;;;;46.53;23.00;;;;;;;14.79;34.91;99462.54;125128;1102;102168;-77
2022/03/30 07:38:02;;;;;;;42.63;24.00;;;;;;;14.95;35.57;99462.56;125014;1102;103125;-78
2022/03/30 07:40:38;;;;;;;47.37;24.27;;;;;;;15.10;34.69;99466.09;125184;1102;104217;-79
2022/03/30 07:43:12;;;;;;;39.90;23.00;;;;;;;15.32;34.34;99458.18;125322;1102;104268;-79
2022/03/30 07:45:46;;;;;;;39.53;22.67;;;;;;;15.53;34.98;99456.39;124774;1102;104169;-79
2022/03/30 07:48:24;;;;;;;45.35;24.40;;;;;;;15.80;34.43;99455.52;124644;1102;104214;-80
2022/03/30 07:51:23;;;;;;;47.33;23.90;;;;;;;16.02;34.69;99460.72;125129;1102;104268;-79
2022/03/30 07:54:01;;;;;;;41.20;22.93;;;;;;;16.20;34.42;99457.14;125096;1102;104197;-82
2022/03/30 07:56:50;;;;;;;40.85;22.15;;;;;;;16.41;34.05;99454.41;125204;1102;104303;-79
2022/03/30 07:59:37;;;;;;;46.90;24.23;;;;;;;16.49;33.46;99454.38;124654;1102;102355;-79
2022/03/30 08:02:15;;;;;;;41.17;23.43;;;;;;;16.56;33.97;99452.56;125085;1102;104169;-79
2022/03/30 08:04:49;;;;;;;56.30;23.50;;;;;;;16.60;33.37;99441.08;125144;1102;104259;-80
2022/03/30 08:07:59;;;;;;;45.50;22.10;;;;;;;16.68;33.18;99449.84;125114;1102;102628;-81
2022/03/30 08:10:35;;;;;;;44.67;23.37;;;;;;;16.77;33.48;99447.14;125077;1103;104066;-79
2022/03/30 08:13:15;;;;;;;41.83;23.27;;;;;;;16.82;32.58;99449.77;125248;1102;104175;-81
2022/03/30 08:15:50;;;;;;;44.47;24.00;;;;;;;16.85;33.15;99445.31;125329;1102;104195;-80
2022/03/30 08:18:23;;;;;;;47.73;25.87;;;;;;;16.81;32.75;99448.89;125410;1102;103886;-78
2022/03/30 08:24:32;;;;;;;48.77;25.53;;;;;;;17.07;32.08;99445.20;125168;1106;102353;-79
2022/03/30 08:27:09;;;;;;;54.20;27.60;;;;;;;17.21;31.56;99432.70;125210;1102;104458;-80
2022/03/30 08:29:44;;;;;;;45.63;28.03;;;;;;;17.33;31.62;99434.38;125163;1102;102176;-79
2022/03/30 08:35:16;;;;;;;52.87;29.23;;;;;;;17.64;31.15;99427.89;124910;1102;104070;-78
2022/03/30 08:38:08;;;;;;;62.37;28.90;;;;;;;17.78;31.31;99434.83;125188;1102;104245;-77
2022/03/30 08:40:42;;;;;;;53.90;28.77;;;;;;;17.89;31.02;99428.56;125042;1102;102130;-77
2022/03/30 08:43:16;;;;;;;55.90;28.50;;;;;;;18.09;30.81;99428.30;125606;1102;102475;-78
2022/03/30 08:45:55;;;;;;;50.97;28.90;;;;;;;18.24;30.94;99421.94;125010;1102;104304;-78
2022/03/30 08:48:30;;;;;;;52.37;29.03;;;;;;;18.44;31.30;99424.34;125031;1102;104160;-78
2022/03/30 08:51:15;;;;;;;53.53;27.03;;;;;;;18.67;30.76;99422.22;125039;1102;104179;-77
2022/03/30 08:56:58;;;;;;;31.07;18.77;;;;;;;19.17;29.61;99410.86;124910;1102;104198;-79
2022/03/30 08:59:37;;;;;;;33.97;16.47;;;;;;;19.37;30.23;99407.86;125034;1102;104238;-77
2022/03/30 09:02:10;;;;;;;27.90;15.93;;;;;;;19.58;30.67;99399.47;124961;1102;108341;-77
2022/03/30 09:05:14;;;;;;;31.97;15.30;;;;;;;19.81;29.66;99398.20;124937;1102;104191;-78
2022/03/30 09:07:49;;;;;;;28.57;14.43;;;;;;;20.00;29.37;99390.70;124892;1102;102235;-78
2022/03/30 09:13:46;;;;;;;25.23;14.30;;;;;;;20.19;29.03;99388.53;125051;1102;102143;-78
2022/03/30 09:16:21;;;;;;;25.23;13.23;;;;;;;20.30;28.82;99385.63;125060;1102;104402;-78
2022/03/30 09:22:00;;;;;;;29.13;14.73;;;;;;;20.49;29.13;99388.79;124488;1102;102773;-77
2022/03/30 09:24:33;;;;;;;28.17;14.80;;;;;;;20.55;28.51;99377.95;124451;1102;104204;-78
2022/03/30 09:27:06;;;;;;;26.60;15.18;;;;;;;20.72;28.36;99376.73;125171;1102;103554;-80
2022/03/30 09:29:54;;;;;;;29.40;14.83;;;;;;;20.81;28.35;99364.05;125200;1102;104249;-78
2022/03/30 09:32:37;;;;;;;28.63;13.90;;;;;;;20.97;28.29;99363.67;124954;1102;102270;-79
2022/03/30 09:35:33;;;;;;;26.50;14.27;;;;;;;21.13;27.80;99362.39;124358;1102;104367;-80
2022/03/30 09:38:27;;;;;;;27.17;14.47;;;;;;;21.16;28.08;99343.64;125092;1106;104207;-79
2022/03/30 09:41:33;;;;;;;24.97;14.63;;;;;;;21.44;28.03;99348.24;125174;1102;102374;-80
2022/03/30 09:44:21;;;;;;;28.27;14.40;;;;;;;21.63;27.74;99358.41;125032;1103;103140;-80
2022/03/30 09:47:09;;;;;;;24.80;14.80;;;;;;;21.79;27.91;99354.41;125387;1102;104190;-80
2022/03/30 09:49:53;;;;;;;30.23;14.53;;;;;;;21.96;27.13;99353.06;125234;1102;102434;-79
2022/03/30 09:52:28;;;;;;;29.83;14.73;;;;;;;22.06;26.34;99349.17;125340;1102;104244;-79
2022/03/30 09:55:25;;;;;;;27.15;14.38;;;;;;;22.14;25.89;99340.93;124577;1102;102458;-78
2022/03/30 09:58:10;;;;;;;25.73;14.57;;;;;;;22.18;26.32;99338.13;125298;1102;104294;-79
2022/03/30 10:01:19;;;;;;;27.03;14.37;;;;;;;22.22;26.15;99339.79;125258;1102;102214;-79
2022/03/30 10:03:59;;;;;;;29.13;14.60;;;;;;;22.21;25.63;99332.69;124488;1102;110202;-77
2022/03/30 10:06:40;;;;;;;28.10;14.30;;;;;;;22.23;25.79;99329.97;124509;1105;102493;-80
2022/03/30 10:09:16;;;;;;;26.80;14.00;;;;;;;22.27;25.95;99336.98;125323;1102;102912;-79
2022/03/30 10:11:50;;;;;;;26.43;14.50;;;;;;;22.28;25.19;99328.02;125107;1102;102735;-81
2022/03/30 10:14:26;;;;;;;28.42;14.93;;;;;;;22.28;25.47;99321.81;125654;1102;104175;-81
2022/03/30 10:17:04;;;;;;;26.13;14.20;;;;;;;22.31;25.54;99321.75;125732;1105;104213;-82
2022/03/30 10:19:42;;;;;;;27.83;13.63;;;;;;;22.35;25.22;99321.61;126278;1102;102006;-80
2022/03/30 10:23:01;;;;;;;24.23;12.80;;;;;;;22.39;24.74;99314.36;125760;1102;103161;-79
2022/03/30 10:26:02;;;;;;;26.97;13.73;;;;;;;22.45;24.58;99308.81;124753;1106;104227;-80
2022/03/30 10:28:52;;;;;;;28.67;14.70;;;;;;;22.44;24.73;99313.30;125022;1106;104415;-79
2022/03/30 10:31:26;;;;;;;26.83;14.13;;;;;;;22.50;24.45;99306.89;124727;1105;104361;-79
2022/03/30 10:34:00;;;;;;;23.80;12.95;;;;;;;22.52;24.77;99313.05;124733;1105;103028;-78
2022/03/30 10:36:36;;;;;;;23.60;12.53;;;;;;;22.57;23.29;99308.42;125050;1105;104309;-78
2022/03/30 10:39:58;;;;;;;25.07;12.87;;;;;;;22.48;23.40;99292.68;124259;1103;102785;-78
2022/03/30 10:43:05;;;;;;;23.17;12.77;;;;;;;22.53;23.47;99296.10;124363;1105;104361;-79
2022/03/30 10:45:43;;;;;;;27.25;12.18;;;;;;;22.58;23.56;99294.14;124423;1105;104428;-77
2022/03/30 10:48:37;;;;;;;22.73;11.87;;;;;;;22.63;23.17;99296.66;124298;1105;104172;-78
2022/03/30 10:51:19;;;;;;;21.03;10.93;;;;;;;22.63;23.28;99290.45;125086;1105;104335;-77
2022/03/30 10:53:56;;;;;;;24.20;11.33;;;;;;;22.69;23.02;99285.77;124490;1106;104072;-76
2022/03/30 10:56:52;;;;;;;25.63;12.03;;;;;;;22.76;23.22;99281.08;124793;1102;103549;-79
2022/03/30 11:00:04;;;;;;;24.93;12.37;;;;;;;22.79;23.20;99279.16;124989;1102;102180;-78
2022/03/30 11:02:43;;;;;;;24.67;12.23;;;;;;;22.82;23.13;99270.17;125128;1102;102778;-78
2022/03/30 11:05:15;;;;;;;21.97;12.27;;;;;;;22.86;23.04;99276.28;124997;1102;119042;-77
2022/03/30 11:07:47;;;;;;;23.87;12.67;;;;;;;22.84;22.93;99268.31;125053;1102;104195;-78
2022/03/30 11:10:28;;;;;;;26.73;12.93;;;;;;;22.85;22.30;99263.86;125014;1102;102314;-77
2022/03/30 11:13:11;;;;;;;24.93;12.73;;;;;;;22.86;22.24;99255.78;124600;1102;104355;-79
2022/03/30 11:16:14;;;;;;;22.40;11.40;;;;;;;22.86;22.82;99258.45;125116;1102;102197;-78
2022/03/30 11:19:04;;;;;;;23.83;12.63;;;;;;;22.87;22.93;99252.16;124451;1102;103696;-78
2022/03/30 11:21:37;;;;;;;26.00;12.73;;;;;;;22.85;22.11;99250.48;124437;1102;104769;-78
2022/03/30 11:24:13;;;;;;;25.30;11.65;;;;;;;22.85;21.97;99247.81;124377;1102;104178;-78
2022/03/30 11:27:20;;;;;;;23.43;12.00;;;;;;;22.88;22.22;99245.89;124282;1105;104235;-77
2022/03/30 11:30:16;;;;;;;22.73;11.10;;;;;;;22.95;22.02;99250.11;124371;1102;104325;-78
2022/03/30 11:33:01;;;;;;;20.43;11.37;;;;;;;22.95;21.91;99260.81;124353;1102;103085;-76
2022/03/30 11:35:35;;;;;;;21.60;11.50;;;;;;;22.97;21.77;99244.71;124285;1102;102993;-77
2022/03/30 11:38:07;;;;;;;26.97;11.90;;;;;;;22.94;21.69;99244.82;124392;1102;104170;-79
2022/03/30 11:40:46;;;;;;;24.53;11.63;;;;;;;22.93;21.51;99245.73;124379;1102;104175;-78
2022/03/30 11:43:23;;;;;;;26.63;11.37;;;;;;;22.93;21.29;99246.59;124475;1101;102431;-79
2022/03/30 11:46:01;;;;;;;28.90;11.60;;;;;;;22.95;21.67;99255.47;124876;1105;104312;-79
2022/03/30 11:48:42;;;;;;;25.17;11.77;;;;;;;22.91;20.65;99245.78;124477;1102;102883;-77
2022/03/30 11:51:14;;;;;;;24.37;11.70;;;;;;;22.89;20.61;99249.43;124305;1102;101873;-78
2022/03/30 11:53:46;;;;;;;23.17;10.87;;;;;;;22.83;21.07;99249.64;124541;1102;104169;-78
2022/03/30 11:56:21;;;;;;;25.03;11.57;;;;;;;22.83;21.02;99245.19;124462;1102;104363;-78
2022/03/30 11:58:57;;;;;;;25.63;13.30;;;;;;;22.83;20.33;99250.54;124337;1101;104219;-77
2022/03/30 12:04:39;;;;;;;25.20;11.37;;;;;;;22.88;21.05;99240.55;124220;1102;104172;-78
2022/03/30 12:07:19;;;;;;;22.33;11.67;;;;;;;22.93;21.06;99245.73;124673;1102;104171;-80
2022/03/30 12:09:57;;;;;;;24.47;11.50;;;;;;;22.98;21.18;99236.63;124656;1102;102288;-79
2022/03/30 12:12:43;;;;;;;26.97;11.77;;;;;;;23.06;20.90;99235.47;125042;1102;103068;-77
2022/03/30 12:15:19;;;;;;;21.03;11.77;;;;;;;23.10;20.65;99237.14;124577;1102;102414;-78
2022/03/30 12:18:08;;;;;;;23.13;11.87;;;;;;;23.07;21.02;99229.20;125090;1102;104211;-79
2022/03/30 12:20:58;;;;;;;22.73;12.37;;;;;;;23.04;21.01;99224.81;124718;1102;102468;-79
2022/03/30 12:23:28;;;;;;;22.33;12.30;;;;;;;23.02;21.01;99229.36;124534;1102;104201;-79
2022/03/30 12:25:58;;;;;;;24.97;11.90;;;;;;;22.94;20.52;99226.95;124461;1102;103557;-79
2022/03/30 12:28:39;;;;;;;21.20;12.27;;;;;;;22.94;20.82;99226.09;124715;1102;102344;-79
2022/03/30 12:31:14;;;;;;;27.47;12.57;;;;;;;22.97;20.97;99224.17;125208;1102;104204;-79